Orlando, FL (32819)

10:05 PM EDT on April 27, 2015 (GMT -0400)
Lake Marsha/Universal Studios | | Change Station
CLOSE
Current Station
Personal Weather Station
Location: Orlando, FL
Elevation: 131 ft
Nearby Weather Stations

Elev 131 ft 28.47 °N, 81.48 °W | Updated 8 seconds ago

Partly Cloudy
Partly Cloudy
72.7 °F
Feels Like 77 °F
N
2.5
Wind Variable Wind from NW
Gusts 4.9 mph

Today
High -- | Low -- °F
--% Chance of Precip.
Yesterday
High -- | Low -- °F
Precip. -- in
6:49 AM 7:58 PM
Waxing Gibbous, 69% visible
Pressure 29.86 in
Visibility 10.0 miles
Clouds Few 9500 ft
Mostly Cloudy 15000 ft
Overcast 20000 ft
Heat Index 77 °F
Dew Point 54 °F
Humidity 52%
Rainfall 0.00 in
Snow Depth Not available.
UV 0.0 out of 12
Pollen 8.60 out of 12
Air Quality Not available.
Flu Activity Local Activity
METAR KMCO 280153Z 35008KT 10SM FEW095 BKN150 OVC200 23/18 A2987 RMK AO2 SLP112 T02330183

More Conditions Fewer Conditions

Pressure 29.86 in
Visibility 10.0 miles
Clouds Few 9500 ft
Mostly Cloudy 15000 ft
Overcast 20000 ft
Heat Index 77 °F
Dew Point 54 °F
Humidity 52%
Rainfall 0.00 in
Snow Depth Not available.
UV 0.0 out of 12
Pollen 8.60 out of 12
Air Quality Not available.
Flu Activity Local Activity
METAR KMCO 280153Z 35008KT 10SM FEW095 BKN150 OVC200 23/18 A2987 RMK AO2 SLP112 T02330183

More Conditions Fewer Conditions

Nowcast | as of 7:32 PM EDT on April 27, 2015

Areas of light rain and sprinkles will be possible across Northern Lake and northern Volusia County into late evening. Scattered showers across Martin and Saint Lucie County will move east toward the Atlantic through 10 PM. The threat for severe weather has ended for the Treasure Coast this evening as severe storms pushed east across the Atlantic waters between 7 and 730 PM. Additional details...including graphics are available online at: http://www.Srh.NOAA.Gov/mlb/blog.Php

×

10-Day Weather Forecast

Almanac

Astronomy

Apr. 27, 2015 Rise Set
Actual Time
Civil Twilight
Nautical Twilight
Astronomical Twilight
Moon
Length of Visible Light
Length of Day
Tomorrow will be .
, % of the Moon is Illuminated

Today's Extremes

State Highs State Lows

Community

WunderPhotos

Upload Photos

1,817,508 photos uploaded!

WunderBlogs® & News

Nearby

Air Quality

  Air Quality AQ Index Pollutant
Not available.

Snow Depth

Station Depth Elevation

Earthquake Activity

City Distance Mag. Time & Date
Minimum magnitude displayed is 2.5.

Coastal Water Temperatures

Place Temperature

Stations

Nearby Weather Stations

Station Location Temp. Windchill Dew Point Humidity Wind Precip. Elev Updated Type